sensor_id;sensor_type;location;lat;lon;timestamp;pressure;altitude;pressure_sealevel;temperature;humidity
16016;BME280;8112;53.592;10.184;2023-05-20T00:00:26;102416.72;;;11.29;100.00
16016;BME280;8112;53.592;10.184;2023-05-20T00:05:28;102410.13;;;11.40;100.00
16016;BME280;8112;53.592;10.184;2023-05-20T00:10:30;102411.81;;;11.43;100.00
16016;BME280;8112;53.592;10.184;2023-05-20T00:15:33;102408.94;;;11.24;100.00
16016;BME280;8112;53.592;10.184;2023-05-20T00:20:35;102409.59;;;11.31;100.00
16016;BME280;8112;53.592;10.184;2023-05-20T00:25:37;102414.03;;;11.30;100.00
16016;BME280;8112;53.592;10.184;2023-05-20T00:30:40;102413.16;;;11.30;100.00
16016;BME280;8112;53.592;10.184;2023-05-20T00:35:42;102411.13;;;11.38;100.00
16016;BME280;8112;53.592;10.184;2023-05-20T00:40:44;102411.31;;;11.32;100.00
16016;BME280;8112;53.592;10.184;2023-05-20T00:45:47;102411.81;;;11.43;100.00
16016;BME280;8112;53.592;10.184;2023-05-20T00:50:49;102413.75;;;11.38;100.00
16016;BME280;8112;53.592;10.184;2023-05-20T00:55:51;102404.81;;;11.42;100.00
16016;BME280;8112;53.592;10.184;2023-05-20T01:00:55;102396.41;;;11.31;100.00
16016;BME280;8112;53.592;10.184;2023-05-20T01:05:57;102391.34;;;11.24;100.00
16016;BME280;8112;53.592;10.184;2023-05-20T01:11:02;102391.66;;;11.15;100.00
16016;BME280;8112;53.592;10.184;2023-05-20T01:16:07;102396.84;;;11.18;100.00
16016;BME280;8112;53.592;10.184;2023-05-20T01:21:11;102392.75;;;11.09;100.00
16016;BME280;8112;53.592;10.184;2023-05-20T01:26:16;102401.41;;;11.13;100.00
16016;BME280;8112;53.592;10.184;2023-05-20T01:31:25;102384.31;;;11.00;100.00
16016;BME280;8112;53.592;10.184;2023-05-20T01:36:29;102395.41;;;10.82;100.00
16016;BME280;8112;53.592;10.184;2023-05-20T01:41:34;102394.13;;;10.94;100.00
16016;BME280;8112;53.592;10.184;2023-05-20T01:46:37;102399.06;;;10.78;100.00
16016;BME280;8112;53.592;10.184;2023-05-20T01:51:39;102398.94;;;10.83;100.00
16016;BME280;8112;53.592;10.184;2023-05-20T01:56:42;102391.16;;;10.78;100.00
16016;BME280;8112;53.592;10.184;2023-05-20T02:01:43;102396.53;;;10.75;100.00
16016;BME280;8112;53.592;10.184;2023-05-20T02:06:49;102388.88;;;10.67;100.00
16016;BME280;8112;53.592;10.184;2023-05-20T02:11:52;102392.63;;;10.60;100.00
16016;BME280;8112;53.592;10.184;2023-05-20T02:16:54;102388.56;;;10.50;100.00
16016;BME280;8112;53.592;10.184;2023-05-20T02:21:55;102390.50;;;10.45;100.00
16016;BME280;8112;53.592;10.184;2023-05-20T02:26:59;102384.06;;;10.53;100.00
16016;BME280;8112;53.592;10.184;2023-05-20T02:32:02;102377.22;;;10.48;100.00
16016;BME280;8112;53.592;10.184;2023-05-20T02:37:04;102378.22;;;10.44;100.00
16016;BME280;8112;53.592;10.184;2023-05-20T02:42:07;102377.44;;;10.40;100.00
16016;BME280;8112;53.592;10.184;2023-05-20T02:47:09;102375.66;;;10.40;100.00
16016;BME280;8112;53.592;10.184;2023-05-20T02:52:11;102376.66;;;10.36;100.00
16016;BME280;8112;53.592;10.184;2023-05-20T02:57:14;102387.41;;;10.59;100.00
16016;BME280;8112;53.592;10.184;2023-05-20T03:02:15;102386.94;;;10.46;100.00
16016;BME280;8112;53.592;10.184;2023-05-20T03:07:17;102382.81;;;10.37;100.00
16016;BME280;8112;53.592;10.184;2023-05-20T03:12:22;102386.22;;;10.40;100.00
16016;BME280;8112;53.592;10.184;2023-05-20T03:17:26;102393.84;;;10.50;100.00
16016;BME280;8112;53.592;10.184;2023-05-20T03:22:28;102388.81;;;10.42;100.00
16016;BME280;8112;53.592;10.184;2023-05-20T03:27:31;102384.44;;;10.41;100.00
16016;BME280;8112;53.592;10.184;2023-05-20T03:32:37;102390.63;;;10.38;100.00
16016;BME280;8112;53.592;10.184;2023-05-20T03:37:40;102398.63;;;10.37;100.00
16016;BME280;8112;53.592;10.184;2023-05-20T03:42:43;102386.84;;;10.49;100.00
16016;BME280;8112;53.592;10.184;2023-05-20T03:47:46;102390.81;;;10.62;100.00
16016;BME280;8112;53.592;10.184;2023-05-20T03:52:50;102392.63;;;10.60;100.00
16016;BME280;8112;53.592;10.184;2023-05-20T03:57:56;102392.56;;;10.62;100.00
16016;BME280;8112;53.592;10.184;2023-05-20T04:02:59;102387.66;;;10.78;100.00
16016;BME280;8112;53.592;10.184;2023-05-20T04:08:01;102386.94;;;11.00;100.00
16016;BME280;8112;53.592;10.184;2023-05-20T04:13:06;102391.03;;;11.08;100.00
16016;BME280;8112;53.592;10.184;2023-05-20T04:18:07;102395.09;;;11.43;100.00
16016;BME280;8112;53.592;10.184;2023-05-20T04:23:09;102389.84;;;11.90;100.00
16016;BME280;8112;53.592;10.184;2023-05-20T04:28:13;102394.63;;;11.57;100.00
16016;BME280;8112;53.592;10.184;2023-05-20T04:33:16;102396.59;;;11.75;100.00
16016;BME280;8112;53.592;10.184;2023-05-20T04:38:18;102393.56;;;11.84;100.00
16016;BME280;8112;53.592;10.184;2023-05-20T04:43:21;102392.25;;;12.20;100.00
16016;BME280;8112;53.592;10.184;2023-05-20T04:48:23;102384.31;;;12.43;100.00
16016;BME280;8112;53.592;10.184;2023-05-20T04:53:25;102386.53;;;12.31;100.00
16016;BME280;8112;53.592;10.184;2023-05-20T04:58:29;102399.28;;;12.21;100.00
16016;BME280;8112;53.592;10.184;2023-05-20T05:03:31;102389.84;;;12.36;100.00
16016;BME280;8112;53.592;10.184;2023-05-20T05:08:32;102395.63;;;12.24;100.00
16016;BME280;8112;53.592;10.184;2023-05-20T05:13:35;102383.34;;;12.23;100.00
16016;BME280;8112;53.592;10.184;2023-05-20T05:18:38;102386.03;;;12.44;100.00
16016;BME280;8112;53.592;10.184;2023-05-20T05:23:39;102394.72;;;12.47;100.00
16016;BME280;8112;53.592;10.184;2023-05-20T05:28:44;102402.19;;;12.58;100.00
16016;BME280;8112;53.592;10.184;2023-05-20T05:33:46;102404.13;;;12.54;100.00
16016;BME280;8112;53.592;10.184;2023-05-20T05:38:48;102402.19;;;12.58;100.00
16016;BME280;8112;53.592;10.184;2023-05-20T05:43:52;102395.16;;;12.59;100.00
16016;BME280;8112;53.592;10.184;2023-05-20T05:48:54;102393.91;;;12.67;100.00
16016;BME280;8112;53.592;10.184;2023-05-20T05:53:58;102389.41;;;12.69;100.00
16016;BME280;8112;53.592;10.184;2023-05-20T05:59:01;102401.88;;;12.88;100.00
16016;BME280;8112;53.592;10.184;2023-05-20T06:04:04;102389.91;;;13.00;100.00
16016;BME280;8112;53.592;10.184;2023-05-20T06:09:07;102390.94;;;13.58;100.00
16016;BME280;8112;53.592;10.184;2023-05-20T06:14:11;102389.22;;;13.95;100.00
16016;BME280;8112;53.592;10.184;2023-05-20T06:19:13;102385.13;;;14.07;100.00
16016;BME280;8112;53.592;10.184;2023-05-20T06:24:14;102383.41;;;14.06;100.00
16016;BME280;8112;53.592;10.184;2023-05-20T06:29:18;102372.69;;;14.46;100.00
16016;BME280;8112;53.592;10.184;2023-05-20T06:34:20;102375.22;;;14.30;100.00
16016;BME280;8112;53.592;10.184;2023-05-20T06:39:23;102361.72;;;14.72;100.00
16016;BME280;8112;53.592;10.184;2023-05-20T06:44:27;102361.19;;;14.82;100.00
16016;BME280;8112;53.592;10.184;2023-05-20T06:49:34;102364.69;;;15.01;100.00
16016;BME280;8112;53.592;10.184;2023-05-20T06:54:36;102365.00;;;15.62;100.00
16016;BME280;8112;53.592;10.184;2023-05-20T06:59:42;102365.25;;;15.73;100.00
16016;BME280;8112;53.592;10.184;2023-05-20T07:04:44;102355.78;;;15.85;100.00
16016;BME280;8112;53.592;10.184;2023-05-20T07:09:47;102351.06;;;16.06;100.00
16016;BME280;8112;53.592;10.184;2023-05-20T07:14:50;102348.09;;;16.13;100.00
16016;BME280;8112;53.592;10.184;2023-05-20T07:19:52;102357.03;;;16.42;100.00
16016;BME280;8112;53.592;10.184;2023-05-20T07:24:54;102358.44;;;16.64;100.00
16016;BME280;8112;53.592;10.184;2023-05-20T07:29:57;102350.84;;;17.17;100.00
16016;BME280;8112;53.592;10.184;2023-05-20T07:34:59;102348.53;;;17.55;100.00
16016;BME280;8112;53.592;10.184;2023-05-20T07:40:04;102348.66;;;18.09;100.00
16016;BME280;8112;53.592;10.184;2023-05-20T07:45:09;102350.25;;;18.12;100.00
16016;BME280;8112;53.592;10.184;2023-05-20T07:50:12;102340.38;;;18.27;100.00
16016;BME280;8112;53.592;10.184;2023-05-20T07:55:13;102338.53;;;18.55;100.00
16016;BME280;8112;53.592;10.184;2023-05-20T08:00:17;102326.63;;;19.00;100.00
16016;BME280;8112;53.592;10.184;2023-05-20T08:05:19;102327.16;;;19.31;100.00
16016;BME280;8112;53.592;10.184;2023-05-20T08:10:22;102315.78;;;19.53;100.00
16016;BME280;8112;53.592;10.184;2023-05-20T08:15:25;102320.44;;;19.12;100.00
16016;BME280;8112;53.592;10.184;2023-05-20T08:20:28;102328.66;;;19.72;100.00
16016;BME280;8112;53.592;10.184;2023-05-20T08:25:31;102320.78;;;19.58;100.00
16016;BME280;8112;53.592;10.184;2023-05-20T08:30:34;102316.19;;;19.47;100.00
16016;BME280;8112;53.592;10.184;2023-05-20T08:35:36;102306.19;;;19.37;100.00
16016;BME280;8112;53.592;10.184;2023-05-20T08:40:40;102304.75;;;19.82;100.00
16016;BME280;8112;53.592;10.184;2023-05-20T08:45:44;102304.53;;;19.61;100.00
16016;BME280;8112;53.592;10.184;2023-05-20T08:50:49;102305.25;;;19.00;100.00
16016;BME280;8112;53.592;10.184;2023-05-20T08:55:52;102306.50;;;18.68;100.00
16016;BME280;8112;53.592;10.184;2023-05-20T09:00:58;102300.84;;;18.86;100.00
16016;BME280;8112;53.592;10.184;2023-05-20T09:06:05;102299.22;;;19.35;100.00
16016;BME280;8112;53.592;10.184;2023-05-20T09:11:08;102293.59;;;18.49;100.00
16016;BME280;8112;53.592;10.184;2023-05-20T09:16:12;102277.28;;;18.66;100.00
16016;BME280;8112;53.592;10.184;2023-05-20T09:21:14;102290.69;;;18.39;100.00
16016;BME280;8112;53.592;10.184;2023-05-20T09:26:16;102283.66;;;18.77;100.00
16016;BME280;8112;53.592;10.184;2023-05-20T09:31:19;102269.56;;;18.75;100.00
16016;BME280;8112;53.592;10.184;2023-05-20T09:36:22;102262.53;;;18.74;100.00
16016;BME280;8112;53.592;10.184;2023-05-20T09:41:29;102267.75;;;19.14;100.00
16016;BME280;8112;53.592;10.184;2023-05-20T09:46:39;102262.09;;;19.06;100.00
16016;BME280;8112;53.592;10.184;2023-05-20T09:51:41;102255.47;;;18.99;100.00
16016;BME280;8112;53.592;10.184;2023-05-20T09:56:45;102261.00;;;19.08;100.00
16016;BME280;8112;53.592;10.184;2023-05-20T10:01:48;102260.16;;;18.95;100.00
16016;BME280;8112;53.592;10.184;2023-05-20T10:07:05;102274.25;;;18.58;100.00
16016;BME280;8112;53.592;10.184;2023-05-20T10:12:22;102271.75;;;18.29;100.00
16016;BME280;8112;53.592;10.184;2023-05-20T10:17:39;102256.28;;;18.21;100.00
16016;BME280;8112;53.592;10.184;2023-05-20T10:22:42;102250.09;;;18.21;100.00
16016;BME280;8112;53.592;10.184;2023-05-20T10:27:45;102235.59;;;18.51;100.00
16016;BME280;8112;53.592;10.184;2023-05-20T10:32:57;102236.53;;;18.24;100.00
16016;BME280;8112;53.592;10.184;2023-05-20T10:38:08;102231.84;;;18.28;100.00
16016;BME280;8112;53.592;10.184;2023-05-20T10:43:12;102233.44;;;18.82;100.00
16016;BME280;8112;53.592;10.184;2023-05-20T10:48:22;102221.50;;;19.62;100.00
16016;BME280;8112;53.592;10.184;2023-05-20T10:53:26;102222.28;;;19.51;100.00
16016;BME280;8112;53.592;10.184;2023-05-20T10:58:35;102201.19;;;19.35;100.00
16016;BME280;8112;53.592;10.184;2023-05-20T11:03:39;102211.66;;;18.88;100.00
16016;BME280;8112;53.592;10.184;2023-05-20T11:08:41;102213.78;;;18.96;100.00
16016;BME280;8112;53.592;10.184;2023-05-20T11:13:43;102201.81;;;19.02;100.00
16016;BME280;8112;53.592;10.184;2023-05-20T11:18:48;102198.19;;;19.03;100.00
16016;BME280;8112;53.592;10.184;2023-05-20T11:23:51;102198.44;;;18.74;100.00
16016;BME280;8112;53.592;10.184;2023-05-20T11:28:53;102199.94;;;18.65;100.00
16016;BME280;8112;53.592;10.184;2023-05-20T11:33:58;102188.59;;;18.74;100.00
16016;BME280;8112;53.592;10.184;2023-05-20T11:39:00;102193.00;;;18.49;100.00
16016;BME280;8112;53.592;10.184;2023-05-20T11:44:08;102189.91;;;18.69;100.00
16016;BME280;8112;53.592;10.184;2023-05-20T11:49:13;102193.53;;;18.42;100.00
16016;BME280;8112;53.592;10.184;2023-05-20T11:54:15;102193.09;;;18.74;100.00
16016;BME280;8112;53.592;10.184;2023-05-20T11:59:17;102186.75;;;18.88;100.00
16016;BME280;8112;53.592;10.184;2023-05-20T12:04:20;102188.47;;;18.76;100.00
16016;BME280;8112;53.592;10.184;2023-05-20T12:09:21;102183.91;;;18.26;100.00
16016;BME280;8112;53.592;10.184;2023-05-20T12:14:23;102182.09;;;18.52;100.00
16016;BME280;8112;53.592;10.184;2023-05-20T12:19:27;102175.19;;;19.13;100.00
16016;BME280;8112;53.592;10.184;2023-05-20T12:24:28;102176.75;;;19.29;100.00
16016;BME280;8112;53.592;10.184;2023-05-20T12:29:30;102169.03;;;19.73;100.00
16016;BME280;8112;53.592;10.184;2023-05-20T12:34:33;102161.53;;;20.14;100.00
16016;BME280;8112;53.592;10.184;2023-05-20T12:39:35;102154.94;;;19.71;100.00
16016;BME280;8112;53.592;10.184;2023-05-20T12:44:37;102150.53;;;19.94;100.00
16016;BME280;8112;53.592;10.184;2023-05-20T12:49:40;102149.59;;;19.82;100.00
16016;BME280;8112;53.592;10.184;2023-05-20T12:54:41;102160.94;;;19.26;99.71
16016;BME280;8112;53.592;10.184;2023-05-20T12:59:43;102164.09;;;18.93;100.00
16016;BME280;8112;53.592;10.184;2023-05-20T13:04:46;102147.22;;;19.06;100.00
16016;BME280;8112;53.592;10.184;2023-05-20T13:09:48;102144.09;;;19.36;100.00
16016;BME280;8112;53.592;10.184;2023-05-20T13:14:50;102140.97;;;19.43;100.00
16016;BME280;8112;53.592;10.184;2023-05-20T13:19:54;102131.81;;;19.34;100.00
16016;BME280;8112;53.592;10.184;2023-05-20T13:24:55;102118.81;;;19.65;100.00
16016;BME280;8112;53.592;10.184;2023-05-20T13:29:57;102116.63;;;19.10;100.00
16016;BME280;8112;53.592;10.184;2023-05-20T13:35:02;102112.66;;;19.40;100.00
16016;BME280;8112;53.592;10.184;2023-05-20T13:40:05;102112.91;;;19.00;100.00
16016;BME280;8112;53.592;10.184;2023-05-20T13:45:08;102097.38;;;19.54;100.00
16016;BME280;8112;53.592;10.184;2023-05-20T13:50:11;102104.44;;;20.02;100.00
16016;BME280;8112;53.592;10.184;2023-05-20T13:55:13;102095.22;;;19.70;100.00
16016;BME280;8112;53.592;10.184;2023-05-20T14:00:15;102090.81;;;19.58;100.00
16016;BME280;8112;53.592;10.184;2023-05-20T14:05:18;102084.66;;;19.33;100.00
16016;BME280;8112;53.592;10.184;2023-05-20T14:10:20;102077.03;;;19.04;100.00
16016;BME280;8112;53.592;10.184;2023-05-20T14:15:22;102083.59;;;19.11;100.00
16016;BME280;8112;53.592;10.184;2023-05-20T14:20:25;102074.16;;;19.18;100.00
16016;BME280;8112;53.592;10.184;2023-05-20T14:25:27;102064.25;;;19.32;100.00
16016;BME280;8112;53.592;10.184;2023-05-20T14:30:28;102048.69;;;19.26;100.00
16016;BME280;8112;53.592;10.184;2023-05-20T14:35:32;102049.38;;;19.16;100.00
16016;BME280;8112;53.592;10.184;2023-05-20T14:40:33;102045.03;;;18.78;100.00
16016;BME280;8112;53.592;10.184;2023-05-20T14:45:35;102042.31;;;18.66;100.00
16016;BME280;8112;53.592;10.184;2023-05-20T14:50:38;102042.88;;;18.46;100.00
16016;BME280;8112;53.592;10.184;2023-05-20T14:55:40;102035.25;;;18.15;100.00
16016;BME280;8112;53.592;10.184;2023-05-20T15:00:41;102022.44;;;18.07;100.00
16016;BME280;8112;53.592;10.184;2023-05-20T15:05:44;102031.97;;;18.12;100.00
16016;BME280;8112;53.592;10.184;2023-05-20T15:10:46;102016.16;;;18.08;100.00
16016;BME280;8112;53.592;10.184;2023-05-20T15:15:48;102015.59;;;17.64;100.00
16016;BME280;8112;53.592;10.184;2023-05-20T15:20:51;102017.72;;;17.59;100.00
16016;BME280;8112;53.592;10.184;2023-05-20T15:25:52;102017.19;;;17.67;100.00
16016;BME280;8112;53.592;10.184;2023-05-20T15:30:54;102018.03;;;18.19;100.00
16016;BME280;8112;53.592;10.184;2023-05-20T15:35:58;102003.78;;;18.07;100.00
16016;BME280;8112;53.592;10.184;2023-05-20T15:41:00;102000.34;;;18.18;100.00
16016;BME280;8112;53.592;10.184;2023-05-20T15:46:01;101996.91;;;18.29;100.00
16016;BME280;8112;53.592;10.184;2023-05-20T15:51:04;101984.59;;;18.40;100.00
16016;BME280;8112;53.592;10.184;2023-05-20T15:56:07;101992.47;;;17.78;100.00
16016;BME280;8112;53.592;10.184;2023-05-20T16:01:09;101986.84;;;17.57;100.00
16016;BME280;8112;53.592;10.184;2023-05-20T16:06:12;101984.56;;;17.37;100.00
16016;BME280;8112;53.592;10.184;2023-05-20T16:11:14;101975.50;;;17.40;100.00
16016;BME280;8112;53.592;10.184;2023-05-20T16:16:16;101965.97;;;17.10;100.00
16016;BME280;8112;53.592;10.184;2023-05-20T16:21:19;101969.75;;;17.33;100.00
16016;BME280;8112;53.592;10.184;2023-05-20T16:26:21;101970.72;;;17.45;100.00
16016;BME280;8112;53.592;10.184;2023-05-20T16:31:23;101967.69;;;17.11;100.00
16016;BME280;8112;53.592;10.184;2023-05-20T16:36:26;101970.56;;;17.21;100.00
16016;BME280;8112;53.592;10.184;2023-05-20T16:41:28;101959.50;;;17.27;100.00
16016;BME280;8112;53.592;10.184;2023-05-20T16:46:30;101958.59;;;17.01;100.00
16016;BME280;8112;53.592;10.184;2023-05-20T16:51:33;101956.31;;;16.94;100.00
16016;BME280;8112;53.592;10.184;2023-05-20T16:56:35;101960.16;;;16.90;100.00
16016;BME280;8112;53.592;10.184;2023-05-20T17:01:36;101952.69;;;16.95;100.00
16016;BME280;8112;53.592;10.184;2023-05-20T17:06:39;101954.78;;;17.05;100.00
16016;BME280;8112;53.592;10.184;2023-05-20T17:11:41;101958.06;;;17.08;100.00
16016;BME280;8112;53.592;10.184;2023-05-20T17:16:43;101955.41;;;17.08;100.00
16016;BME280;8112;53.592;10.184;2023-05-20T17:21:46;101957.69;;;17.15;100.00
16016;BME280;8112;53.592;10.184;2023-05-20T17:26:48;101955.00;;;17.02;100.00
16016;BME280;8112;53.592;10.184;2023-05-20T17:31:50;101946.59;;;17.08;100.00
16016;BME280;8112;53.592;10.184;2023-05-20T17:36:53;101936.16;;;17.18;100.00
16016;BME280;8112;53.592;10.184;2023-05-20T17:41:56;101942.53;;;17.15;100.00
16016;BME280;8112;53.592;10.184;2023-05-20T17:46:58;101949.84;;;16.99;100.00
16016;BME280;8112;53.592;10.184;2023-05-20T17:52:01;101936.94;;;16.92;100.00
16016;BME280;8112;53.592;10.184;2023-05-20T17:57:03;101935.75;;;16.96;100.00
16016;BME280;8112;53.592;10.184;2023-05-20T18:02:05;101941.78;;;16.73;100.00
16016;BME280;8112;53.592;10.184;2023-05-20T18:07:08;101943.81;;;16.55;100.00
16016;BME280;8112;53.592;10.184;2023-05-20T18:12:10;101941.81;;;16.58;100.00
16016;BME280;8112;53.592;10.184;2023-05-20T18:17:11;101932.94;;;16.45;100.00
16016;BME280;8112;53.592;10.184;2023-05-20T18:22:14;101930.84;;;16.50;100.00
16016;BME280;8112;53.592;10.184;2023-05-20T18:27:16;101923.63;;;16.52;100.00
16016;BME280;8112;53.592;10.184;2023-05-20T18:32:18;101932.75;;;16.48;100.00
16016;BME280;8112;53.592;10.184;2023-05-20T18:37:22;101931.72;;;16.36;100.00
16016;BME280;8112;53.592;10.184;2023-05-20T18:42:26;101942.28;;;16.23;100.00
16016;BME280;8112;53.592;10.184;2023-05-20T18:47:28;101939.09;;;16.03;100.00
16016;BME280;8112;53.592;10.184;2023-05-20T18:52:31;101948.13;;;15.86;100.00
16016;BME280;8112;53.592;10.184;2023-05-20T18:57:33;101948.38;;;15.67;100.00
16016;BME280;8112;53.592;10.184;2023-05-20T19:02:35;101937.94;;;15.49;100.00
16016;BME280;8112;53.592;10.184;2023-05-20T19:07:38;101946.25;;;15.29;100.00
16016;BME280;8112;53.592;10.184;2023-05-20T19:12:39;101946.09;;;15.01;100.00
16016;BME280;8112;53.592;10.184;2023-05-20T19:17:42;101947.84;;;14.86;100.00
16016;BME280;8112;53.592;10.184;2023-05-20T19:22:45;101952.16;;;14.73;100.00
16016;BME280;8112;53.592;10.184;2023-05-20T19:27:47;101947.50;;;14.60;100.00
16016;BME280;8112;53.592;10.184;2023-05-20T19:32:49;101952.81;;;14.44;100.00
16016;BME280;8112;53.592;10.184;2023-05-20T19:37:52;101954.78;;;14.40;100.00
16016;BME280;8112;53.592;10.184;2023-05-20T19:42:53;101959.69;;;14.32;100.00
16016;BME280;8112;53.592;10.184;2023-05-20T19:47:55;101961.44;;;14.32;100.00
16016;BME280;8112;53.592;10.184;2023-05-20T19:52:59;101971.72;;;14.22;100.00
16016;BME280;8112;53.592;10.184;2023-05-20T19:58:02;101966.06;;;14.12;100.00
16016;BME280;8112;53.592;10.184;2023-05-20T20:03:04;101966.31;;;14.07;100.00
16016;BME280;8112;53.592;10.184;2023-05-20T20:08:08;101964.41;;;13.93;100.00
16016;BME280;8112;53.592;10.184;2023-05-20T20:13:10;101961.41;;;13.83;100.00
16016;BME280;8112;53.592;10.184;2023-05-20T20:18:11;101961.00;;;13.91;100.00
16016;BME280;8112;53.592;10.184;2023-05-20T20:23:14;101956.38;;;13.95;100.00
16016;BME280;8112;53.592;10.184;2023-05-20T20:28:16;101955.28;;;13.99;100.00
16016;BME280;8112;53.592;10.184;2023-05-20T20:33:18;101952.88;;;13.94;100.00
16016;BME280;8112;53.592;10.184;2023-05-20T20:38:21;101953.28;;;13.87;100.00
16016;BME280;8112;53.592;10.184;2023-05-20T20:43:23;101953.78;;;13.77;100.00
16016;BME280;8112;53.592;10.184;2023-05-20T20:48:28;101957.53;;;13.73;100.00
16016;BME280;8112;53.592;10.184;2023-05-20T20:53:31;101958.91;;;13.80;100.00
16016;BME280;8112;53.592;10.184;2023-05-20T20:58:32;101953.59;;;13.64;100.00
16016;BME280;8112;53.592;10.184;2023-05-20T21:03:34;101959.03;;;13.44;100.00
16016;BME280;8112;53.592;10.184;2023-05-20T21:08:40;101953.31;;;13.34;100.00
16016;BME280;8112;53.592;10.184;2023-05-20T21:13:42;101955.03;;;13.17;100.00
16016;BME280;8112;53.592;10.184;2023-05-20T21:18:44;101953.72;;;13.26;100.00
16016;BME280;8112;53.592;10.184;2023-05-20T21:23:47;101942.63;;;13.19;100.00
16016;BME280;8112;53.592;10.184;2023-05-20T21:28:51;101942.91;;;13.13;100.00
16016;BME280;8112;53.592;10.184;2023-05-20T21:33:53;101940.56;;;13.24;100.00
16016;BME280;8112;53.592;10.184;2023-05-20T21:38:56;101938.00;;;13.23;100.00
16016;BME280;8112;53.592;10.184;2023-05-20T21:43:57;101931.69;;;13.25;100.00
16016;BME280;8112;53.592;10.184;2023-05-20T21:48:59;101927.66;;;13.18;100.00
16016;BME280;8112;53.592;10.184;2023-05-20T21:54:02;101919.47;;;13.05;100.00
16016;BME280;8112;53.592;10.184;2023-05-20T21:59:04;101920.50;;;13.03;100.00
16016;BME280;8112;53.592;10.184;2023-05-20T22:04:06;101910.91;;;13.00;100.00
16016;BME280;8112;53.592;10.184;2023-05-20T22:09:09;101909.03;;;13.02;100.00
16016;BME280;8112;53.592;10.184;2023-05-20T22:14:10;101909.91;;;13.03;100.00
16016;BME280;8112;53.592;10.184;2023-05-20T22:19:16;101905.69;;;13.16;100.00
16016;BME280;8112;53.592;10.184;2023-05-20T22:24:19;101906.22;;;13.23;100.00
16016;BME280;8112;53.592;10.184;2023-05-20T22:29:20;101887.88;;;13.02;100.00
16016;BME280;8112;53.592;10.184;2023-05-20T22:34:22;101897.34;;;12.89;100.00
16016;BME280;8112;53.592;10.184;2023-05-20T22:39:25;101883.28;;;13.06;100.00
16016;BME280;8112;53.592;10.184;2023-05-20T22:44:27;101881.41;;;13.08;100.00
16016;BME280;8112;53.592;10.184;2023-05-20T22:49:29;101876.72;;;13.13;100.00
16016;BME280;8112;53.592;10.184;2023-05-20T22:54:33;101867.41;;;13.06;100.00
16016;BME280;8112;53.592;10.184;2023-05-20T22:59:35;101858.22;;;12.95;100.00
16016;BME280;8112;53.592;10.184;2023-05-20T23:04:37;101851.53;;;13.06;100.00
16016;BME280;8112;53.592;10.184;2023-05-20T23:09:40;101848.66;;;12.93;100.00
16016;BME280;8112;53.592;10.184;2023-05-20T23:14:41;101846.88;;;12.93;100.00
16016;BME280;8112;53.592;10.184;2023-05-20T23:19:43;101843.38;;;12.75;100.00
16016;BME280;8112;53.592;10.184;2023-05-20T23:24:46;101845.88;;;12.78;100.00
16016;BME280;8112;53.592;10.184;2023-05-20T23:29:48;101835.34;;;12.77;100.00
16016;BME280;8112;53.592;10.184;2023-05-20T23:34:50;101830.84;;;12.79;100.00
16016;BME280;8112;53.592;10.184;2023-05-20T23:39:54;101825.81;;;12.74;100.00
16016;BME280;8112;53.592;10.184;2023-05-20T23:44:55;101831.94;;;12.75;100.00
16016;BME280;8112;53.592;10.184;2023-05-20T23:49:57;101828.91;;;12.65;100.00
16016;BME280;8112;53.592;10.184;2023-05-20T23:55:01;101815.84;;;12.62;100.00
